Cape San Blas, Florida
Current Conditions -  °F | °C
As of 7:53 AM on Monday 22 Dec 2014 (Local Time) from KAAF Reporting Station
Light Rain Light Rain  
Wind Chill: 63°   Ceiling: 200
Heat Index: 63°   Visibility: 0.25mi
Dew Point: 60°   Wind: 5mph
Humidity: 90%   Direction: 50°NE
Pressure: 29.93"   Gusts: NA
Location:  29.8451°N, 85.2061°W
Report Text: KAAF 221253Z AUTO 05004KT 1/4SM -RA FG VV002 17/16 A2993 RMK AO2 RAB31 SLP136 P0000 T01720156 TSNO
Loading
Personal Weather Stations






























Interactive Weather Map New forecast layout! Learn more

10-Day Weather Forecast

Advertisements
Track Severe Weather on mobile